createdAt,value
2022-11-09T00:02:23.215Z,87.29
2022-11-09T00:04:56.905Z,87.21
2022-11-09T00:07:32.775Z,87.32
2022-11-09T00:10:08.106Z,87.37
2022-11-09T00:12:41.888Z,87.42
2022-11-09T00:15:15.569Z,87.37
2022-11-09T00:17:49.174Z,87.49
2022-11-09T00:20:22.579Z,87.50
2022-11-09T00:22:58.096Z,87.34
2022-11-09T00:25:32.271Z,87.41
2022-11-09T00:28:06.251Z,87.28
2022-11-09T00:30:39.641Z,87.23
2022-11-09T00:33:13.241Z,87.29
2022-11-09T00:35:48.362Z,87.21
2022-11-09T00:38:22.464Z,87.13
2022-11-09T00:40:55.972Z,87.04
2022-11-09T00:43:29.649Z,87.17
2022-11-09T00:46:03.453Z,87.08
2022-11-09T00:48:37.197Z,87.16
2022-11-09T00:51:11.920Z,87.12
2022-11-09T00:53:47.687Z,86.96
2022-11-09T00:56:21.462Z,87.00
2022-11-09T00:58:57.095Z,87.11
2022-11-09T01:01:30.864Z,87.08
2022-11-09T01:04:04.511Z,87.03
2022-11-09T01:06:39.412Z,87.07
2022-11-09T01:09:14.557Z,87.05
2022-11-09T01:11:48.100Z,87.09
2022-11-09T01:14:21.719Z,87.04
2022-11-09T01:16:55.238Z,86.93
2022-11-09T01:19:30.493Z,86.91
2022-11-09T01:22:04.047Z,87.05
2022-11-09T01:24:37.549Z,86.98
2022-11-09T01:27:11.332Z,86.95
2022-11-09T01:29:44.830Z,87.05
2022-11-09T01:32:18.464Z,87.11
2022-11-09T01:34:51.979Z,87.08
2022-11-09T01:37:25.612Z,87.09
2022-11-09T01:39:59.188Z,87.08
2022-11-09T01:42:38.499Z,87.24
2022-11-09T01:45:28.128Z,87.28
2022-11-09T01:48:08.248Z,87.30
2022-11-09T01:50:45.260Z,87.37
2022-11-09T01:53:21.599Z,87.43
2022-11-09T01:55:57.826Z,87.38
2022-11-09T01:58:34.569Z,87.36
2022-11-09T02:01:10.622Z,87.29
2022-11-09T02:03:47.394Z,87.33
2022-11-09T02:06:24.322Z,87.28
2022-11-09T02:09:00.955Z,87.20
2022-11-09T02:11:36.244Z,87.15
2022-11-09T02:14:11.237Z,87.16
2022-11-09T02:16:46.215Z,87.31
2022-11-09T02:19:19.844Z,87.16
2022-11-09T02:21:54.650Z,87.15
2022-11-09T02:24:29.819Z,87.11
2022-11-09T02:27:04.043Z,87.11
2022-11-09T02:29:40.994Z,87.10
2022-11-09T02:32:18.329Z,87.17
2022-11-09T02:34:52.137Z,87.16
2022-11-09T02:37:30.632Z,87.08
2022-11-09T02:40:07.321Z,87.11
2022-11-09T02:42:41.847Z,87.27
2022-11-09T02:45:15.327Z,87.38
2022-11-09T02:47:49.107Z,87.32
2022-11-09T02:50:22.516Z,87.37
2022-11-09T02:52:56.054Z,87.30
2022-11-09T02:55:29.373Z,87.28
2022-11-09T02:58:02.990Z,87.35
2022-11-09T03:00:36.478Z,87.33
2022-11-09T03:03:10.806Z,87.21
2022-11-09T03:05:45.160Z,87.13
2022-11-09T03:08:19.387Z,87.26
2022-11-09T03:10:53.975Z,87.29
2022-11-09T03:13:27.710Z,87.03
2022-11-09T03:18:48.095Z,87.20
2022-11-09T03:21:22.188Z,88.24
2022-11-09T03:23:57.564Z,87.59
2022-11-09T03:26:30.981Z,87.23
2022-11-09T03:29:04.884Z,87.08
2022-11-09T03:31:40.071Z,86.94
2022-11-09T03:34:14.864Z,86.79
2022-11-09T03:36:48.405Z,86.68
2022-11-09T03:39:22.740Z,86.70
2022-11-09T03:41:56.175Z,86.66
2022-11-09T03:44:30.880Z,86.62
2022-11-09T03:47:04.598Z,86.60
2022-11-09T03:49:37.916Z,86.56
2022-11-09T03:52:11.526Z,86.54
2022-11-09T03:54:45.252Z,86.50
2022-11-09T03:57:18.739Z,86.51
2022-11-09T03:59:51.992Z,86.55
2022-11-09T04:02:25.424Z,86.46
2022-11-09T04:04:58.968Z,86.48
2022-11-09T04:10:22.097Z,86.72
2022-11-09T04:12:55.607Z,86.50
2022-11-09T04:15:28.993Z,86.50
2022-11-09T04:18:03.628Z,86.53
2022-11-09T04:20:37.122Z,86.58
2022-11-09T04:23:12.579Z,86.51
2022-11-09T04:25:46.163Z,86.47
2022-11-09T04:28:21.365Z,86.38
2022-11-09T04:30:54.895Z,86.45
2022-11-09T04:33:30.240Z,86.47
2022-11-09T04:36:07.799Z,86.41
2022-11-09T04:38:40.858Z,86.54
2022-11-09T04:41:14.493Z,86.52
2022-11-09T04:43:47.717Z,86.47
2022-11-09T04:46:21.046Z,86.44
2022-11-09T04:49:06.036Z,86.42
2022-11-09T04:51:39.943Z,86.15
2022-11-09T04:54:13.864Z,86.23
2022-11-09T04:56:47.272Z,86.28
2022-11-09T04:59:20.975Z,86.20
2022-11-09T05:01:54.367Z,86.23
2022-11-09T05:07:04.971Z,86.08
2022-11-09T05:09:38.277Z,86.13
2022-11-09T05:12:12.595Z,86.03
2022-11-09T05:14:45.928Z,86.06
2022-11-09T05:17:19.394Z,85.98
2022-11-09T05:19:55.866Z,85.98
2022-11-09T05:22:44.854Z,86.01
2022-11-09T05:25:18.649Z,85.87
2022-11-09T05:27:51.813Z,85.82
2022-11-09T05:30:25.365Z,85.70
2022-11-09T05:32:59.095Z,85.67
2022-11-09T05:35:32.466Z,85.67
2022-11-09T05:38:06.048Z,85.74
2022-11-09T05:40:39.713Z,85.59
2022-11-09T05:43:13.072Z,85.74
2022-11-09T05:45:47.271Z,85.64
2022-11-09T05:48:21.379Z,85.79
2022-11-09T05:50:54.947Z,85.83
2022-11-09T05:53:30.502Z,85.86
2022-11-09T05:56:09.576Z,85.85
2022-11-09T05:58:43.002Z,85.85
2022-11-09T06:01:18.830Z,85.68
2022-11-09T06:03:53.771Z,85.64
2022-11-09T06:06:30.262Z,85.27
2022-11-09T06:09:04.027Z,85.21
2022-11-09T06:11:37.247Z,85.23
2022-11-09T06:14:10.547Z,84.86
2022-11-09T06:16:44.030Z,85.11
2022-11-09T06:19:17.618Z,85.11
2022-11-09T06:21:51.008Z,85.05
2022-11-09T06:24:24.325Z,84.64
2022-11-09T06:26:58.359Z,84.55
2022-11-09T06:29:32.028Z,84.90
2022-11-09T06:32:05.636Z,84.84
2022-11-09T06:34:39.189Z,84.75
2022-11-09T06:37:13.204Z,84.80
2022-11-09T06:39:47.600Z,84.54
2022-11-09T06:42:21.395Z,84.68
2022-11-09T06:44:55.207Z,84.75
2022-11-09T06:47:30.352Z,84.79
2022-11-09T06:50:04.073Z,84.82
2022-11-09T06:52:37.570Z,84.81
2022-11-09T06:55:12.767Z,84.95
2022-11-09T06:57:46.195Z,84.83
2022-11-09T07:00:21.808Z,84.91
2022-11-09T07:02:55.331Z,84.84
2022-11-09T07:05:29.012Z,84.69
2022-11-09T07:08:02.358Z,84.71
2022-11-09T07:10:35.736Z,84.77
2022-11-09T07:13:10.275Z,84.75
2022-11-09T07:15:43.743Z,84.64
2022-11-09T07:18:17.179Z,84.56
2022-11-09T07:20:50.715Z,84.41
2022-11-09T07:23:24.164Z,84.30
2022-11-09T07:25:59.356Z,84.49
2022-11-09T07:28:32.743Z,84.49
2022-11-09T07:31:06.476Z,84.49
2022-11-09T07:33:39.660Z,84.42
2022-11-09T07:36:18.277Z,84.36
2022-11-09T07:38:48.520Z,84.32
2022-11-09T07:41:22.419Z,84.43
2022-11-09T07:43:55.990Z,84.50
2022-11-09T07:46:29.372Z,84.34
2022-11-09T07:49:02.709Z,84.30
2022-11-09T07:51:37.437Z,84.28
2022-11-09T07:54:11.809Z,84.09
2022-11-09T07:56:45.461Z,84.11
2022-11-09T07:59:18.895Z,84.10
2022-11-09T08:01:52.538Z,84.01
2022-11-09T08:04:26.196Z,83.99
2022-11-09T08:06:59.454Z,84.02
2022-11-09T08:09:33.289Z,84.10
2022-11-09T08:12:07.248Z,84.14
2022-11-09T08:14:40.858Z,84.21
2022-11-09T08:17:14.461Z,84.24
2022-11-09T08:19:47.862Z,84.19
2022-11-09T08:22:21.325Z,84.23
2022-11-09T08:24:54.785Z,84.17
2022-11-09T08:27:29.833Z,84.18
2022-11-09T08:30:03.508Z,84.13
2022-11-09T08:32:36.950Z,84.00
2022-11-09T08:35:14.540Z,83.99
2022-11-09T08:37:49.176Z,83.84
2022-11-09T08:40:24.728Z,83.84
2022-11-09T08:42:59.695Z,83.81
2022-11-09T08:45:34.910Z,83.63
2022-11-09T08:48:09.894Z,83.71
2022-11-09T08:50:43.046Z,83.78
2022-11-09T08:53:16.361Z,83.66
2022-11-09T08:55:49.859Z,83.70
2022-11-09T08:58:23.787Z,83.67
2022-11-09T09:00:57.192Z,83.62
2022-11-09T09:03:30.568Z,83.51
2022-11-09T09:06:07.633Z,83.26
2022-11-09T09:08:41.049Z,83.43
2022-11-09T09:11:15.429Z,83.33
2022-11-09T09:13:48.865Z,83.46
2022-11-09T09:16:22.464Z,83.67
2022-11-09T09:18:56.182Z,83.61
2022-11-09T09:21:29.772Z,83.53
2022-11-09T09:24:03.129Z,83.43
2022-11-09T09:26:36.960Z,83.02
2022-11-09T09:29:11.854Z,82.96
2022-11-09T09:31:45.232Z,83.09
2022-11-09T09:34:18.833Z,83.18
2022-11-09T09:36:54.691Z,83.34
2022-11-09T09:39:28.365Z,83.41
2022-11-09T09:42:04.993Z,83.34
2022-11-09T09:44:41.260Z,83.20
2022-11-09T09:47:16.974Z,83.26
2022-11-09T09:49:53.559Z,83.22
2022-11-09T09:52:30.703Z,83.25
2022-11-09T09:55:07.322Z,83.45
2022-11-09T09:57:42.414Z,83.50
2022-11-09T10:00:23.155Z,83.39
2022-11-09T10:02:57.230Z,83.20
2022-11-09T10:05:34.209Z,83.26
2022-11-09T10:08:10.359Z,83.16
2022-11-09T10:10:47.054Z,83.29
2022-11-09T10:13:38.887Z,83.32
2022-11-09T10:16:16.158Z,83.34
2022-11-09T10:18:59.274Z,83.28
2022-11-09T10:21:38.868Z,83.36
2022-11-09T10:24:18.809Z,83.32
2022-11-09T10:26:54.472Z,83.15
2022-11-09T10:29:29.900Z,83.20
2022-11-09T10:32:08.953Z,83.23
2022-11-09T10:34:45.790Z,83.14
2022-11-09T10:37:22.057Z,83.24
2022-11-09T10:39:58.604Z,83.40
2022-11-09T10:42:52.649Z,83.52
2022-11-09T10:45:45.727Z,83.65
2022-11-09T10:48:39.250Z,83.91
2022-11-09T10:51:39.751Z,84.10
2022-11-09T10:54:33.964Z,84.35
2022-11-09T10:57:26.932Z,84.54
2022-11-09T11:00:21.028Z,84.72
2022-11-09T11:03:18.326Z,84.88
2022-11-09T11:06:12.993Z,84.93
2022-11-09T11:09:19.824Z,85.02
2022-11-09T11:12:17.810Z,85.15
2022-11-09T11:15:21.579Z,85.18
2022-11-09T11:21:32.900Z,85.82
2022-11-09T11:24:23.944Z,86.26
2022-11-09T11:27:18.232Z,86.67
2022-11-09T11:30:15.179Z,86.95
2022-11-09T11:33:11.140Z,87.18
2022-11-09T11:36:06.332Z,87.37
2022-11-09T11:39:01.725Z,87.53
2022-11-09T11:42:03.961Z,87.71
2022-11-09T11:45:38.439Z,87.73
2022-11-09T11:48:05.026Z,87.79
2022-11-09T11:53:57.728Z,88.12
2022-11-09T11:56:51.982Z,88.21
2022-11-09T12:00:06.149Z,88.25
2022-11-09T12:03:35.509Z,88.20
2022-11-09T12:06:54.716Z,88.18
2022-11-09T12:10:31.352Z,88.22
2022-11-09T12:13:43.445Z,88.36
2022-11-09T12:16:37.464Z,88.47
2022-11-09T12:19:40.758Z,88.59
2022-11-09T12:22:36.941Z,88.69
2022-11-09T12:25:31.362Z,88.72
2022-11-09T12:28:31.397Z,88.81
2022-11-09T12:31:27.918Z,88.82
2022-11-09T12:34:22.215Z,88.96
2022-11-09T12:37:16.314Z,89.05
2022-11-09T12:40:15.101Z,89.03
2022-11-09T12:43:09.346Z,89.04
2022-11-09T12:46:02.372Z,89.07
2022-11-09T12:48:54.915Z,89.12
2022-11-09T12:51:46.373Z,89.20
2022-11-09T12:54:39.491Z,89.19
2022-11-09T12:57:33.472Z,89.26
2022-11-09T13:03:36.605Z,89.37
2022-11-09T13:06:29.491Z,89.31
2022-11-09T13:09:25.785Z,89.26
2022-11-09T13:12:22.786Z,89.43
2022-11-09T13:15:25.834Z,89.43
2022-11-09T13:18:30.433Z,89.26
2022-11-09T13:25:02.493Z,89.45
2022-11-09T13:27:53.745Z,89.49
2022-11-09T13:30:45.470Z,89.47
2022-11-09T13:33:39.778Z,89.40
2022-11-09T13:36:31.112Z,89.46
2022-11-09T13:39:41.434Z,89.50
2022-11-09T13:42:36.131Z,89.52
2022-11-09T13:45:33.606Z,89.59
2022-11-09T13:48:43.428Z,89.63
2022-11-09T13:51:48.259Z,89.59
2022-11-09T13:54:45.602Z,89.60
2022-11-09T13:57:38.243Z,89.77
2022-11-09T14:00:29.778Z,89.72
2022-11-09T14:03:23.742Z,89.70
2022-11-09T14:06:15.238Z,89.66
2022-11-09T14:09:06.892Z,89.69
2022-11-09T14:12:06.550Z,89.73
2022-11-09T14:15:23.113Z,89.68
2022-11-09T14:18:21.041Z,89.70
2022-11-09T14:21:19.119Z,89.72
2022-11-09T14:24:19.768Z,89.62
2022-11-09T14:27:20.421Z,89.54
2022-11-09T14:30:22.602Z,89.36
2022-11-09T14:33:24.637Z,89.26
2022-11-09T14:36:18.084Z,89.19
2022-11-09T14:39:15.425Z,89.05
2022-11-09T14:42:07.291Z,88.93
2022-11-09T14:44:58.913Z,88.86
2022-11-09T14:47:53.193Z,88.72
2022-11-09T14:50:45.206Z,88.72
2022-11-09T14:53:39.009Z,88.61
2022-11-09T14:56:34.075Z,88.61
2022-11-09T14:59:28.358Z,88.47
2022-11-09T15:02:21.202Z,88.48
2022-11-09T15:05:33.106Z,88.30
2022-11-09T15:08:24.862Z,88.35
2022-11-09T15:11:16.044Z,88.14
2022-11-09T15:14:15.872Z,88.03
2022-11-09T15:17:11.004Z,87.99
2022-11-09T15:20:05.881Z,87.82
2022-11-09T15:22:59.300Z,87.62
2022-11-09T15:25:59.490Z,87.62
2022-11-09T15:28:51.627Z,87.64
2022-11-09T15:31:58.726Z,87.57
2022-11-09T15:34:58.372Z,87.22
2022-11-09T15:37:55.813Z,87.05
2022-11-09T15:40:46.820Z,87.00
2022-11-09T15:43:38.034Z,86.81
2022-11-09T15:46:31.369Z,86.96
2022-11-09T15:49:25.377Z,87.02
2022-11-09T15:52:16.105Z,86.73
2022-11-09T15:55:08.018Z,86.61
2022-11-09T15:57:58.853Z,86.81
2022-11-09T16:00:50.404Z,86.56
2022-11-09T16:03:41.613Z,86.46
2022-11-09T16:06:32.757Z,86.07
2022-11-09T16:09:23.842Z,86.23
2022-11-09T16:12:14.823Z,86.17
2022-11-09T16:15:06.328Z,86.02
2022-11-09T16:17:57.409Z,85.93
2022-11-09T16:20:48.467Z,85.99
2022-11-09T16:23:39.948Z,85.64
2022-11-09T16:26:32.124Z,85.92
2022-11-09T16:29:25.859Z,85.77
2022-11-09T16:32:17.207Z,85.74
2022-11-09T16:35:28.367Z,85.63
2022-11-09T16:38:05.253Z,85.83
2022-11-09T16:40:56.362Z,85.77
2022-11-09T16:43:48.897Z,85.53
2022-11-09T16:46:41.373Z,85.31
2022-11-09T16:49:33.389Z,85.65
2022-11-09T16:52:26.105Z,85.58
2022-11-09T16:55:17.579Z,84.97
2022-11-09T16:58:09.109Z,85.02
2022-11-09T17:01:20.535Z,85.01
2022-11-09T17:03:52.849Z,84.82
2022-11-09T17:06:44.025Z,84.87
2022-11-09T17:09:37.103Z,84.80
2022-11-09T17:12:28.180Z,84.49
2022-11-09T17:15:20.206Z,84.62
2022-11-09T17:18:13.057Z,84.19
2022-11-09T17:21:04.273Z,84.26
2022-11-09T17:23:57.024Z,84.09
2022-11-09T17:26:48.094Z,83.89
2022-11-09T17:29:39.398Z,84.08
2022-11-09T17:32:30.745Z,83.81
2022-11-09T17:35:22.165Z,83.46
2022-11-09T17:38:13.657Z,83.57
2022-11-09T17:41:09.559Z,83.43
2022-11-09T17:44:04.095Z,83.20
2022-11-09T17:46:55.571Z,83.27
2022-11-09T17:49:46.894Z,82.99
2022-11-09T17:55:24.017Z,83.07
2022-11-09T17:58:15.151Z,82.60
2022-11-09T18:01:10.206Z,82.64
2022-11-09T18:04:06.342Z,82.59
2022-11-09T18:06:55.666Z,82.49
2022-11-09T18:09:47.487Z,82.49
2022-11-09T18:12:38.777Z,82.54
2022-11-09T18:15:30.269Z,82.73
2022-11-09T18:18:22.157Z,82.26
2022-11-09T18:21:15.701Z,82.25
2022-11-09T18:24:08.230Z,82.36
2022-11-09T18:26:59.546Z,82.13
2022-11-09T18:29:50.531Z,81.93
2022-11-09T18:32:42.021Z,81.78
2022-11-09T18:35:33.489Z,82.03
2022-11-09T18:38:29.133Z,81.68
2022-11-09T18:41:19.574Z,81.49
2022-11-09T18:44:11.218Z,81.53
2022-11-09T18:47:05.598Z,81.10
2022-11-09T18:49:55.843Z,81.20
2022-11-09T18:52:47.711Z,81.25
2022-11-09T18:55:38.916Z,80.94
2022-11-09T18:58:30.800Z,81.11
2022-11-09T19:01:24.533Z,81.26
2022-11-09T19:04:17.534Z,81.03
2022-11-09T19:07:08.991Z,80.70
2022-11-09T19:10:01.154Z,80.76
2022-11-09T19:12:52.682Z,81.17
2022-11-09T19:15:47.041Z,81.04
2022-11-09T19:18:38.518Z,80.84
2022-11-09T19:21:40.094Z,80.82
2022-11-09T19:24:31.611Z,80.92
2022-11-09T19:27:24.837Z,80.86
2022-11-09T19:30:16.774Z,80.58
2022-11-09T19:33:11.039Z,80.66
2022-11-09T19:36:28.507Z,80.50
2022-11-09T19:38:56.347Z,80.48
2022-11-09T19:41:48.133Z,80.49
2022-11-09T19:44:41.205Z,80.67
2022-11-09T19:47:33.980Z,80.44
2022-11-09T19:50:25.588Z,80.52
2022-11-09T19:53:18.154Z,80.52
2022-11-09T19:56:11.787Z,80.31
2022-11-09T19:59:04.930Z,80.07
2022-11-09T20:01:57.031Z,80.27
2022-11-09T20:04:50.177Z,80.40
2022-11-09T20:07:41.540Z,80.27
2022-11-09T20:10:32.999Z,80.02
2022-11-09T20:13:25.503Z,80.33
2022-11-09T20:16:17.055Z,80.22
2022-11-09T20:19:10.293Z,80.34
2022-11-09T20:22:01.953Z,80.28
2022-11-09T20:24:53.471Z,80.17
2022-11-09T20:27:45.507Z,80.07
2022-11-09T20:30:38.846Z,80.04
2022-11-09T20:33:30.363Z,79.85
2022-11-09T20:36:22.020Z,79.99
2022-11-09T20:39:13.728Z,79.94
2022-11-09T20:42:12.239Z,79.61
2022-11-09T20:45:06.168Z,79.73
2022-11-09T20:48:10.580Z,79.51
2022-11-09T20:50:50.747Z,79.43
2022-11-09T20:53:42.442Z,79.53
2022-11-09T20:56:34.102Z,79.41
2022-11-09T20:59:25.495Z,79.24
2022-11-09T21:02:18.186Z,79.35
2022-11-09T21:05:10.687Z,79.27
2022-11-09T21:08:02.762Z,79.12
2022-11-09T21:10:54.120Z,79.23
2022-11-09T21:13:47.409Z,78.99
2022-11-09T21:16:38.877Z,79.09
2022-11-09T21:19:30.817Z,79.29
2022-11-09T21:22:22.154Z,79.18
2022-11-09T21:25:31.234Z,78.98
2022-11-09T21:28:47.913Z,79.08
2022-11-09T21:31:39.131Z,79.13
2022-11-09T21:34:36.228Z,79.11
2022-11-09T21:37:24.606Z,79.15
2022-11-09T21:40:15.843Z,79.07
2022-11-09T21:43:07.736Z,78.91
2022-11-09T21:45:59.075Z,78.69
2022-11-09T21:48:50.436Z,78.88
2022-11-09T21:51:42.636Z,78.88
2022-11-09T21:54:34.194Z,78.95
2022-11-09T21:57:25.802Z,78.75
2022-11-09T22:00:19.897Z,78.68
2022-11-09T22:03:11.272Z,78.73
2022-11-09T22:06:03.176Z,78.65
2022-11-09T22:08:55.124Z,78.74
2022-11-09T22:12:05.105Z,78.47
2022-11-09T22:15:14.166Z,78.62
2022-11-09T22:18:06.062Z,78.66
2022-11-09T22:21:04.588Z,78.72
2022-11-09T22:23:58.406Z,78.70
2022-11-09T22:26:50.079Z,78.66
2022-11-09T22:29:41.590Z,78.72
2022-11-09T22:32:34.155Z,78.88
2022-11-09T22:35:25.799Z,78.78
2022-11-09T22:38:17.111Z,78.92
2022-11-09T22:41:10.581Z,78.87
2022-11-09T22:44:01.686Z,78.87
2022-11-09T22:46:52.863Z,78.85
2022-11-09T22:49:44.257Z,78.89
2022-11-09T22:52:35.535Z,78.86
2022-11-09T22:55:26.950Z,78.91
2022-11-09T22:58:18.299Z,78.91
2022-11-09T23:01:12.687Z,78.89
2022-11-09T23:04:04.274Z,78.64
2022-11-09T23:06:55.553Z,78.71
2022-11-09T23:09:46.980Z,78.76
2022-11-09T23:12:38.372Z,78.61
2022-11-09T23:15:30.267Z,78.57
2022-11-09T23:18:39.113Z,78.63
2022-11-09T23:21:32.748Z,78.46
2022-11-09T23:24:42.923Z,78.36
2022-11-09T23:27:34.432Z,78.45
2022-11-09T23:30:26.726Z,78.39
2022-11-09T23:33:18.566Z,78.35
2022-11-09T23:36:11.949Z,78.38
2022-11-09T23:39:03.556Z,78.36
2022-11-09T23:41:55.324Z,78.52
2022-11-09T23:44:46.374Z,78.54
2022-11-09T23:47:37.655Z,78.43
2022-11-09T23:50:29.671Z,78.57
2022-11-09T23:53:21.583Z,78.52
2022-11-09T23:56:14.801Z,78.42
2022-11-09T23:59:06.325Z,78.40
